SBBR/BSB METAR and TAF weather

Enter ICAO airport designator
Station Type Date Time Source
SBBR METAR 2019/10/15 18:00 UTC NOAA

SBBR 151800Z 08008KT 030V190 CAVOK 34/08 Q1016


Station Type Date Time Source
SBBR Decoded METAR 2019/10/15 18:00 UTC NOAA

Brasilia Aeroporto , Brazil (SBBR) 15-52S 047-56W 1061M
Oct 15, 2019 - 02:00 PM EDT / 2019.10.15 1800 UTC
Wind: from the E (080 degrees) at 9 MPH (8 KT) (direction variable):0
Visibility: greater than 7 mile(s):0
Temperature: 93 F (34 C)
Dew Point: 46 F (8 C)
Relative Humidity: 20%
Pressure (altimeter): 30.00 in. Hg (1016 hPa)
ob: SBBR 151800Z 08008KT 030V190 CAVOK 34/08 Q1016
cycle: 18

Station Type Date Time Source
SBBR TAF 2019/10/15 18:57 UTC NOAA

TAF SBBR 151600Z 1518/1618 11010KT 9999 SCT040 TN19/1607Z TX33/1617Z
BECMG 1521/1523 CAVOK
BECMG 1601/1603 27003KT
BECMG 1606/1608 36003KT
BECMG 1610/1612 04008KT
BECMG 1615/1617 09008KT SCT045
RMK PEH

Example: see airport list